sensor_id;sensor_type;location;lat;lon;timestamp;temperature;humidity
12655;DHT22;6392;44.644;11.448;2023-04-02T00:01:44;15.30;99.90
12655;DHT22;6392;44.644;11.448;2023-04-02T00:04:12;15.20;99.90
12655;DHT22;6392;44.644;11.448;2023-04-02T00:06:40;15.10;99.90
12655;DHT22;6392;44.644;11.448;2023-04-02T00:09:21;15.10;99.90
12655;DHT22;6392;44.644;11.448;2023-04-02T00:11:49;15.10;99.90
12655;DHT22;6392;44.644;11.448;2023-04-02T00:14:22;15.10;99.90
12655;DHT22;6392;44.644;11.448;2023-04-02T00:16:50;15.10;99.90
12655;DHT22;6392;44.644;11.448;2023-04-02T00:19:18;15.00;99.90
12655;DHT22;6392;44.644;11.448;2023-04-02T00:21:46;15.00;99.90
12655;DHT22;6392;44.644;11.448;2023-04-02T00:24:15;14.90;99.90
12655;DHT22;6392;44.644;11.448;2023-04-02T00:26:42;14.80;99.90
12655;DHT22;6392;44.644;11.448;2023-04-02T00:29:10;14.70;99.90
12655;DHT22;6392;44.644;11.448;2023-04-02T00:31:40;14.60;99.90
12655;DHT22;6392;44.644;11.448;2023-04-02T00:34:08;14.70;99.90
12655;DHT22;6392;44.644;11.448;2023-04-02T00:36:36;14.60;99.90
12655;DHT22;6392;44.644;11.448;2023-04-02T00:39:03;14.50;99.90
12655;DHT22;6392;44.644;11.448;2023-04-02T00:41:33;14.40;99.90
12655;DHT22;6392;44.644;11.448;2023-04-02T00:44:03;14.30;99.90
12655;DHT22;6392;44.644;11.448;2023-04-02T00:46:32;14.20;99.90
12655;DHT22;6392;44.644;11.448;2023-04-02T00:49:15;14.10;99.90
12655;DHT22;6392;44.644;11.448;2023-04-02T00:51:45;14.00;99.90
12655;DHT22;6392;44.644;11.448;2023-04-02T00:54:13;13.90;99.90
12655;DHT22;6392;44.644;11.448;2023-04-02T00:56:46;13.80;99.90
12655;DHT22;6392;44.644;11.448;2023-04-02T00:59:18;13.80;99.90
12655;DHT22;6392;44.644;11.448;2023-04-02T01:01:49;13.70;99.90
12655;DHT22;6392;44.644;11.448;2023-04-02T01:04:27;13.60;99.90
12655;DHT22;6392;44.644;11.448;2023-04-02T01:06:55;13.50;99.90
12655;DHT22;6392;44.644;11.448;2023-04-02T01:09:27;13.50;99.90
12655;DHT22;6392;44.644;11.448;2023-04-02T01:12:02;13.40;99.90
12655;DHT22;6392;44.644;11.448;2023-04-02T01:14:36;13.40;99.90
12655;DHT22;6392;44.644;11.448;2023-04-02T01:17:09;13.40;99.90
12655;DHT22;6392;44.644;11.448;2023-04-02T01:19:47;13.30;99.90
12655;DHT22;6392;44.644;11.448;2023-04-02T01:22:20;13.30;99.90
12655;DHT22;6392;44.644;11.448;2023-04-02T01:24:48;13.30;99.90
12655;DHT22;6392;44.644;11.448;2023-04-02T01:27:15;13.30;99.90
12655;DHT22;6392;44.644;11.448;2023-04-02T01:29:46;13.20;99.90
12655;DHT22;6392;44.644;11.448;2023-04-02T01:32:14;13.20;99.90
12655;DHT22;6392;44.644;11.448;2023-04-02T01:34:42;13.20;99.90
12655;DHT22;6392;44.644;11.448;2023-04-02T01:37:15;13.10;99.90
12655;DHT22;6392;44.644;11.448;2023-04-02T01:39:53;13.10;99.90
12655;DHT22;6392;44.644;11.448;2023-04-02T01:42:23;13.00;99.90
12655;DHT22;6392;44.644;11.448;2023-04-02T01:44:53;13.00;99.90
12655;DHT22;6392;44.644;11.448;2023-04-02T01:47:21;12.90;99.90
12655;DHT22;6392;44.644;11.448;2023-04-02T01:49:51;12.90;99.90
12655;DHT22;6392;44.644;11.448;2023-04-02T01:52:24;12.90;99.90
12655;DHT22;6392;44.644;11.448;2023-04-02T01:54:51;12.90;99.90
12655;DHT22;6392;44.644;11.448;2023-04-02T01:57:29;12.80;99.90
12655;DHT22;6392;44.644;11.448;2023-04-02T01:59:57;12.80;99.90
12655;DHT22;6392;44.644;11.448;2023-04-02T02:02:24;12.70;99.90
12655;DHT22;6392;44.644;11.448;2023-04-02T02:04:51;12.70;99.90
12655;DHT22;6392;44.644;11.448;2023-04-02T02:07:18;12.60;99.90
12655;DHT22;6392;44.644;11.448;2023-04-02T02:09:46;12.60;99.90
12655;DHT22;6392;44.644;11.448;2023-04-02T02:12:13;12.60;99.90
12655;DHT22;6392;44.644;11.448;2023-04-02T02:14:44;12.60;99.90
12655;DHT22;6392;44.644;11.448;2023-04-02T02:17:13;12.60;99.90
12655;DHT22;6392;44.644;11.448;2023-04-02T02:19:41;12.60;99.90
12655;DHT22;6392;44.644;11.448;2023-04-02T02:22:10;12.60;99.90
12655;DHT22;6392;44.644;11.448;2023-04-02T02:24:38;12.70;99.90
12655;DHT22;6392;44.644;11.448;2023-04-02T02:27:13;12.70;99.90
12655;DHT22;6392;44.644;11.448;2023-04-02T02:29:47;12.60;99.90
12655;DHT22;6392;44.644;11.448;2023-04-02T02:32:16;12.60;99.90
12655;DHT22;6392;44.644;11.448;2023-04-02T02:34:45;12.60;99.90
12655;DHT22;6392;44.644;11.448;2023-04-02T02:37:14;12.60;99.90
12655;DHT22;6392;44.644;11.448;2023-04-02T02:39:42;12.60;99.90
12655;DHT22;6392;44.644;11.448;2023-04-02T02:42:12;12.60;99.90
12655;DHT22;6392;44.644;11.448;2023-04-02T02:44:41;12.70;99.90
12655;DHT22;6392;44.644;11.448;2023-04-02T02:47:10;12.70;99.90
12655;DHT22;6392;44.644;11.448;2023-04-02T02:49:40;12.70;99.90
12655;DHT22;6392;44.644;11.448;2023-04-02T02:52:12;12.70;99.90
12655;DHT22;6392;44.644;11.448;2023-04-02T02:54:40;12.80;99.90
12655;DHT22;6392;44.644;11.448;2023-04-02T02:57:10;12.70;99.90
12655;DHT22;6392;44.644;11.448;2023-04-02T02:59:38;12.80;99.90
12655;DHT22;6392;44.644;11.448;2023-04-02T03:02:06;12.70;99.90
12655;DHT22;6392;44.644;11.448;2023-04-02T03:04:33;12.80;99.90
12655;DHT22;6392;44.644;11.448;2023-04-02T03:07:02;12.80;99.90
12655;DHT22;6392;44.644;11.448;2023-04-02T03:09:33;12.80;99.90
12655;DHT22;6392;44.644;11.448;2023-04-02T03:12:03;12.80;99.90
12655;DHT22;6392;44.644;11.448;2023-04-02T03:14:34;12.80;99.90
12655;DHT22;6392;44.644;11.448;2023-04-02T03:17:03;12.80;99.90
12655;DHT22;6392;44.644;11.448;2023-04-02T03:19:33;12.80;99.90
12655;DHT22;6392;44.644;11.448;2023-04-02T03:22:04;12.80;99.90
12655;DHT22;6392;44.644;11.448;2023-04-02T03:24:33;12.80;99.90
12655;DHT22;6392;44.644;11.448;2023-04-02T03:27:01;12.80;99.90
12655;DHT22;6392;44.644;11.448;2023-04-02T03:29:31;12.80;99.90
12655;DHT22;6392;44.644;11.448;2023-04-02T03:31:58;12.80;99.90
12655;DHT22;6392;44.644;11.448;2023-04-02T03:34:27;12.70;99.90
12655;DHT22;6392;44.644;11.448;2023-04-02T03:36:57;12.70;99.90
12655;DHT22;6392;44.644;11.448;2023-04-02T03:39:28;12.70;99.90
12655;DHT22;6392;44.644;11.448;2023-04-02T03:42:00;12.70;99.90
12655;DHT22;6392;44.644;11.448;2023-04-02T03:44:29;12.60;99.90
12655;DHT22;6392;44.644;11.448;2023-04-02T03:46:57;12.60;99.90
12655;DHT22;6392;44.644;11.448;2023-04-02T03:49:28;12.60;99.90
12655;DHT22;6392;44.644;11.448;2023-04-02T03:51:58;12.50;99.90
12655;DHT22;6392;44.644;11.448;2023-04-02T03:54:27;12.50;99.90
12655;DHT22;6392;44.644;11.448;2023-04-02T03:56:54;12.50;99.90
12655;DHT22;6392;44.644;11.448;2023-04-02T03:59:21;12.50;99.90
12655;DHT22;6392;44.644;11.448;2023-04-02T04:01:52;12.50;99.90
12655;DHT22;6392;44.644;11.448;2023-04-02T04:04:20;12.50;99.90
12655;DHT22;6392;44.644;11.448;2023-04-02T04:06:48;12.50;99.90
12655;DHT22;6392;44.644;11.448;2023-04-02T04:09:17;12.50;99.90
12655;DHT22;6392;44.644;11.448;2023-04-02T04:11:48;12.40;99.90
12655;DHT22;6392;44.644;11.448;2023-04-02T04:14:18;12.40;99.90
12655;DHT22;6392;44.644;11.448;2023-04-02T04:16:46;12.50;99.90
12655;DHT22;6392;44.644;11.448;2023-04-02T04:19:14;12.50;99.90
12655;DHT22;6392;44.644;11.448;2023-04-02T04:21:44;12.50;99.90
12655;DHT22;6392;44.644;11.448;2023-04-02T04:24:15;12.50;99.90
12655;DHT22;6392;44.644;11.448;2023-04-02T04:26:45;12.50;99.90
12655;DHT22;6392;44.644;11.448;2023-04-02T04:29:17;12.50;99.90
12655;DHT22;6392;44.644;11.448;2023-04-02T04:31:50;12.50;99.90
12655;DHT22;6392;44.644;11.448;2023-04-02T04:34:20;12.50;99.90
12655;DHT22;6392;44.644;11.448;2023-04-02T04:36:50;12.50;99.90
12655;DHT22;6392;44.644;11.448;2023-04-02T04:39:20;12.60;99.90
12655;DHT22;6392;44.644;11.448;2023-04-02T04:41:49;12.50;99.90
12655;DHT22;6392;44.644;11.448;2023-04-02T04:44:18;12.50;99.90
12655;DHT22;6392;44.644;11.448;2023-04-02T04:46:48;12.50;99.90
12655;DHT22;6392;44.644;11.448;2023-04-02T04:49:17;12.50;99.90
12655;DHT22;6392;44.644;11.448;2023-04-02T04:51:47;12.40;99.90
12655;DHT22;6392;44.644;11.448;2023-04-02T04:54:15;12.40;99.90
12655;DHT22;6392;44.644;11.448;2023-04-02T04:56:44;12.40;99.90
12655;DHT22;6392;44.644;11.448;2023-04-02T04:59:13;12.30;99.90
12655;DHT22;6392;44.644;11.448;2023-04-02T05:01:44;12.30;99.90
12655;DHT22;6392;44.644;11.448;2023-04-02T05:04:13;12.40;99.90
12655;DHT22;6392;44.644;11.448;2023-04-02T05:06:42;12.30;99.90
12655;DHT22;6392;44.644;11.448;2023-04-02T05:09:12;12.40;99.90
12655;DHT22;6392;44.644;11.448;2023-04-02T05:11:42;12.40;99.90
12655;DHT22;6392;44.644;11.448;2023-04-02T05:14:13;12.50;99.90
12655;DHT22;6392;44.644;11.448;2023-04-02T05:16:44;12.50;99.90
12655;DHT22;6392;44.644;11.448;2023-04-02T05:19:15;12.50;99.90
12655;DHT22;6392;44.644;11.448;2023-04-02T05:21:43;12.50;99.90
12655;DHT22;6392;44.644;11.448;2023-04-02T05:24:30;12.60;99.90
12655;DHT22;6392;44.644;11.448;2023-04-02T05:27:00;12.50;99.90
12655;DHT22;6392;44.644;11.448;2023-04-02T05:29:29;12.50;99.90
12655;DHT22;6392;44.644;11.448;2023-04-02T05:31:59;12.60;99.90
12655;DHT22;6392;44.644;11.448;2023-04-02T05:34:28;12.60;99.90
12655;DHT22;6392;44.644;11.448;2023-04-02T05:36:57;12.60;99.90
12655;DHT22;6392;44.644;11.448;2023-04-02T05:39:24;12.70;99.90
12655;DHT22;6392;44.644;11.448;2023-04-02T05:41:56;12.70;99.90
12655;DHT22;6392;44.644;11.448;2023-04-02T05:44:25;12.80;99.90
12655;DHT22;6392;44.644;11.448;2023-04-02T05:46:53;12.80;99.90
12655;DHT22;6392;44.644;11.448;2023-04-02T05:49:24;12.90;99.90
12655;DHT22;6392;44.644;11.448;2023-04-02T05:51:55;12.90;99.90
12655;DHT22;6392;44.644;11.448;2023-04-02T05:54:24;13.00;99.90
12655;DHT22;6392;44.644;11.448;2023-04-02T05:56:53;13.00;99.90
12655;DHT22;6392;44.644;11.448;2023-04-02T05:59:21;13.00;99.90
12655;DHT22;6392;44.644;11.448;2023-04-02T06:01:50;13.10;99.90
12655;DHT22;6392;44.644;11.448;2023-04-02T06:04:21;13.10;99.90
12655;DHT22;6392;44.644;11.448;2023-04-02T06:06:54;13.20;99.90
12655;DHT22;6392;44.644;11.448;2023-04-02T06:09:23;13.20;99.90
12655;DHT22;6392;44.644;11.448;2023-04-02T06:11:56;13.30;99.90
12655;DHT22;6392;44.644;11.448;2023-04-02T06:14:25;13.40;99.90
12655;DHT22;6392;44.644;11.448;2023-04-02T06:16:52;13.40;99.90
12655;DHT22;6392;44.644;11.448;2023-04-02T06:19:19;13.50;99.90
12655;DHT22;6392;44.644;11.448;2023-04-02T06:21:48;13.50;99.90
12655;DHT22;6392;44.644;11.448;2023-04-02T06:24:18;13.60;99.90
12655;DHT22;6392;44.644;11.448;2023-04-02T06:26:47;13.70;99.90
12655;DHT22;6392;44.644;11.448;2023-04-02T06:29:17;13.80;99.90
12655;DHT22;6392;44.644;11.448;2023-04-02T06:31:46;13.80;99.90
12655;DHT22;6392;44.644;11.448;2023-04-02T06:34:14;13.90;99.90
12655;DHT22;6392;44.644;11.448;2023-04-02T06:36:42;14.00;99.90
12655;DHT22;6392;44.644;11.448;2023-04-02T06:39:10;14.00;99.90
12655;DHT22;6392;44.644;11.448;2023-04-02T06:41:42;14.10;99.90
12655;DHT22;6392;44.644;11.448;2023-04-02T06:44:11;14.10;99.90
12655;DHT22;6392;44.644;11.448;2023-04-02T06:46:41;14.20;99.90
12655;DHT22;6392;44.644;11.448;2023-04-02T06:49:13;14.20;99.90
12655;DHT22;6392;44.644;11.448;2023-04-02T06:51:40;14.30;99.90
12655;DHT22;6392;44.644;11.448;2023-04-02T06:54:11;14.30;99.90
12655;DHT22;6392;44.644;11.448;2023-04-02T06:56:39;14.40;99.90
12655;DHT22;6392;44.644;11.448;2023-04-02T06:59:09;14.50;99.90
12655;DHT22;6392;44.644;11.448;2023-04-02T07:01:38;14.60;99.90
12655;DHT22;6392;44.644;11.448;2023-04-02T07:04:06;14.70;99.90
12655;DHT22;6392;44.644;11.448;2023-04-02T07:06:34;14.90;99.90
12655;DHT22;6392;44.644;11.448;2023-04-02T07:09:01;15.00;99.90
12655;DHT22;6392;44.644;11.448;2023-04-02T07:11:28;15.10;99.90
12655;DHT22;6392;44.644;11.448;2023-04-02T07:13:55;15.20;99.90
12655;DHT22;6392;44.644;11.448;2023-04-02T07:16:24;15.20;99.90
12655;DHT22;6392;44.644;11.448;2023-04-02T07:18:51;15.30;99.90
12655;DHT22;6392;44.644;11.448;2023-04-02T07:21:19;15.30;99.90
12655;DHT22;6392;44.644;11.448;2023-04-02T07:23:46;15.40;99.90
12655;DHT22;6392;44.644;11.448;2023-04-02T07:26:14;15.40;99.90
12655;DHT22;6392;44.644;11.448;2023-04-02T07:28:41;15.40;99.90
12655;DHT22;6392;44.644;11.448;2023-04-02T07:31:12;15.30;99.90
12655;DHT22;6392;44.644;11.448;2023-04-02T07:33:42;15.40;99.90
12655;DHT22;6392;44.644;11.448;2023-04-02T07:36:11;15.40;99.90
12655;DHT22;6392;44.644;11.448;2023-04-02T07:38:38;15.40;99.90
12655;DHT22;6392;44.644;11.448;2023-04-02T07:41:05;15.40;99.90
12655;DHT22;6392;44.644;11.448;2023-04-02T07:43:32;15.40;99.90
12655;DHT22;6392;44.644;11.448;2023-04-02T07:45:59;15.30;99.90
12655;DHT22;6392;44.644;11.448;2023-04-02T07:48:26;15.30;99.90
12655;DHT22;6392;44.644;11.448;2023-04-02T07:50:54;15.30;99.90
12655;DHT22;6392;44.644;11.448;2023-04-02T07:53:25;15.20;99.90
12655;DHT22;6392;44.644;11.448;2023-04-02T07:55:54;15.20;99.90
12655;DHT22;6392;44.644;11.448;2023-04-02T07:58:21;15.20;99.90
12655;DHT22;6392;44.644;11.448;2023-04-02T08:00:48;15.20;99.90
12655;DHT22;6392;44.644;11.448;2023-04-02T08:03:15;15.20;99.90
12655;DHT22;6392;44.644;11.448;2023-04-02T08:05:42;15.20;99.90
12655;DHT22;6392;44.644;11.448;2023-04-02T08:08:10;15.30;99.90
12655;DHT22;6392;44.644;11.448;2023-04-02T08:10:38;15.30;99.90
12655;DHT22;6392;44.644;11.448;2023-04-02T08:13:05;15.30;99.90
12655;DHT22;6392;44.644;11.448;2023-04-02T08:15:31;15.40;99.90
12655;DHT22;6392;44.644;11.448;2023-04-02T08:17:58;15.40;99.90
12655;DHT22;6392;44.644;11.448;2023-04-02T08:20:25;15.40;99.90
12655;DHT22;6392;44.644;11.448;2023-04-02T08:22:52;15.40;99.90
12655;DHT22;6392;44.644;11.448;2023-04-02T08:25:20;15.40;99.90
12655;DHT22;6392;44.644;11.448;2023-04-02T08:27:47;15.30;99.90
12655;DHT22;6392;44.644;11.448;2023-04-02T08:30:15;15.20;99.90
12655;DHT22;6392;44.644;11.448;2023-04-02T08:32:42;15.10;99.90
12655;DHT22;6392;44.644;11.448;2023-04-02T08:35:09;15.10;99.90
12655;DHT22;6392;44.644;11.448;2023-04-02T08:37:36;15.10;99.90
12655;DHT22;6392;44.644;11.448;2023-04-02T08:40:04;15.00;99.90
12655;DHT22;6392;44.644;11.448;2023-04-02T08:42:35;15.00;99.90
12655;DHT22;6392;44.644;11.448;2023-04-02T08:45:05;14.90;99.90
12655;DHT22;6392;44.644;11.448;2023-04-02T08:47:34;14.90;99.90
12655;DHT22;6392;44.644;11.448;2023-04-02T08:50:03;15.00;99.90
12655;DHT22;6392;44.644;11.448;2023-04-02T08:52:32;15.00;99.90
12655;DHT22;6392;44.644;11.448;2023-04-02T08:55:01;15.00;99.90
12655;DHT22;6392;44.644;11.448;2023-04-02T08:57:30;15.00;99.90
12655;DHT22;6392;44.644;11.448;2023-04-02T09:00:03;15.00;99.90
12655;DHT22;6392;44.644;11.448;2023-04-02T09:02:34;15.00;99.90
12655;DHT22;6392;44.644;11.448;2023-04-02T09:05:04;15.10;99.90
12655;DHT22;6392;44.644;11.448;2023-04-02T09:07:31;15.10;99.90
12655;DHT22;6392;44.644;11.448;2023-04-02T09:09:58;15.00;99.90
12655;DHT22;6392;44.644;11.448;2023-04-02T09:12:26;15.00;99.90
12655;DHT22;6392;44.644;11.448;2023-04-02T09:14:58;15.00;99.90
12655;DHT22;6392;44.644;11.448;2023-04-02T09:17:27;15.00;99.90
12655;DHT22;6392;44.644;11.448;2023-04-02T09:19:55;15.00;99.90
12655;DHT22;6392;44.644;11.448;2023-04-02T09:22:23;15.00;99.90
12655;DHT22;6392;44.644;11.448;2023-04-02T09:24:51;15.00;99.90
12655;DHT22;6392;44.644;11.448;2023-04-02T09:27:18;15.00;99.90
12655;DHT22;6392;44.644;11.448;2023-04-02T09:29:46;15.10;99.90
12655;DHT22;6392;44.644;11.448;2023-04-02T09:35:07;15.30;99.90
12655;DHT22;6392;44.644;11.448;2023-04-02T09:37:37;15.40;99.90
12655;DHT22;6392;44.644;11.448;2023-04-02T09:43:02;15.60;99.90
12655;DHT22;6392;44.644;11.448;2023-04-02T09:45:29;15.80;99.90
12655;DHT22;6392;44.644;11.448;2023-04-02T09:47:56;15.90;99.90
12655;DHT22;6392;44.644;11.448;2023-04-02T09:50:28;16.00;99.90
12655;DHT22;6392;44.644;11.448;2023-04-02T09:52:56;16.10;99.90
12655;DHT22;6392;44.644;11.448;2023-04-02T09:55:24;16.20;99.90
12655;DHT22;6392;44.644;11.448;2023-04-02T09:58:06;16.30;99.90
12655;DHT22;6392;44.644;11.448;2023-04-02T10:00:33;16.40;99.90
12655;DHT22;6392;44.644;11.448;2023-04-02T10:03:02;16.40;99.90
12655;DHT22;6392;44.644;11.448;2023-04-02T10:05:32;16.40;99.90
12655;DHT22;6392;44.644;11.448;2023-04-02T10:08:07;16.40;99.90
12655;DHT22;6392;44.644;11.448;2023-04-02T10:10:35;16.50;99.90
12655;DHT22;6392;44.644;11.448;2023-04-02T10:13:05;16.50;99.90
12655;DHT22;6392;44.644;11.448;2023-04-02T10:15:34;16.50;99.90
12655;DHT22;6392;44.644;11.448;2023-04-02T10:18:05;16.60;99.90
12655;DHT22;6392;44.644;11.448;2023-04-02T10:20:34;16.60;99.90
12655;DHT22;6392;44.644;11.448;2023-04-02T10:23:03;16.60;99.90
12655;DHT22;6392;44.644;11.448;2023-04-02T10:25:31;16.70;99.90
12655;DHT22;6392;44.644;11.448;2023-04-02T10:28:03;16.70;99.90
12655;DHT22;6392;44.644;11.448;2023-04-02T10:30:37;16.80;99.90
12655;DHT22;6392;44.644;11.448;2023-04-02T10:33:07;16.90;99.90
12655;DHT22;6392;44.644;11.448;2023-04-02T10:35:39;16.90;99.90
12655;DHT22;6392;44.644;11.448;2023-04-02T10:40:58;16.80;99.90
12655;DHT22;6392;44.644;11.448;2023-04-02T10:46:09;16.70;99.90
12655;DHT22;6392;44.644;11.448;2023-04-02T10:48:39;16.60;99.90
12655;DHT22;6392;44.644;11.448;2023-04-02T10:51:19;16.50;99.90
12655;DHT22;6392;44.644;11.448;2023-04-02T10:53:50;16.50;99.90
12655;DHT22;6392;44.644;11.448;2023-04-02T10:56:22;16.40;99.90
12655;DHT22;6392;44.644;11.448;2023-04-02T10:58:51;16.40;99.90
12655;DHT22;6392;44.644;11.448;2023-04-02T11:01:19;16.30;99.90
12655;DHT22;6392;44.644;11.448;2023-04-02T11:03:50;16.30;99.90
12655;DHT22;6392;44.644;11.448;2023-04-02T11:06:21;16.20;99.90
12655;DHT22;6392;44.644;11.448;2023-04-02T11:08:49;16.20;99.90
12655;DHT22;6392;44.644;11.448;2023-04-02T11:11:17;16.20;99.90
12655;DHT22;6392;44.644;11.448;2023-04-02T11:13:48;16.30;99.90
12655;DHT22;6392;44.644;11.448;2023-04-02T11:16:15;16.30;99.90
12655;DHT22;6392;44.644;11.448;2023-04-02T11:18:42;16.30;99.90
12655;DHT22;6392;44.644;11.448;2023-04-02T11:21:37;16.30;99.90
12655;DHT22;6392;44.644;11.448;2023-04-02T11:24:05;16.40;99.90
12655;DHT22;6392;44.644;11.448;2023-04-02T11:26:36;16.40;99.90
12655;DHT22;6392;44.644;11.448;2023-04-02T11:29:12;16.30;99.90
12655;DHT22;6392;44.644;11.448;2023-04-02T11:31:39;16.30;99.90
12655;DHT22;6392;44.644;11.448;2023-04-02T11:34:10;16.30;99.90
12655;DHT22;6392;44.644;11.448;2023-04-02T11:39:49;16.30;99.90
12655;DHT22;6392;44.644;11.448;2023-04-02T11:42:24;16.20;99.90
12655;DHT22;6392;44.644;11.448;2023-04-02T11:44:51;16.20;99.90
12655;DHT22;6392;44.644;11.448;2023-04-02T11:47:19;16.20;99.90
12655;DHT22;6392;44.644;11.448;2023-04-02T11:49:59;16.10;99.90
12655;DHT22;6392;44.644;11.448;2023-04-02T11:52:28;16.10;99.90
12655;DHT22;6392;44.644;11.448;2023-04-02T11:54:59;16.20;99.90
12655;DHT22;6392;44.644;11.448;2023-04-02T11:57:33;16.20;99.90
12655;DHT22;6392;44.644;11.448;2023-04-02T12:00:06;16.20;99.90
12655;DHT22;6392;44.644;11.448;2023-04-02T12:02:43;16.20;99.90
12655;DHT22;6392;44.644;11.448;2023-04-02T12:05:16;16.20;99.90
12655;DHT22;6392;44.644;11.448;2023-04-02T12:10:32;16.10;99.90
12655;DHT22;6392;44.644;11.448;2023-04-02T12:12:59;16.00;99.90
12655;DHT22;6392;44.644;11.448;2023-04-02T12:15:35;16.00;99.90
12655;DHT22;6392;44.644;11.448;2023-04-02T12:18:10;16.00;99.90
12655;DHT22;6392;44.644;11.448;2023-04-02T12:20:38;16.00;99.90
12655;DHT22;6392;44.644;11.448;2023-04-02T12:23:04;16.10;99.90
12655;DHT22;6392;44.644;11.448;2023-04-02T12:25:33;16.10;99.90
12655;DHT22;6392;44.644;11.448;2023-04-02T12:28:13;16.10;99.90
12655;DHT22;6392;44.644;11.448;2023-04-02T12:30:42;16.20;99.90
12655;DHT22;6392;44.644;11.448;2023-04-02T12:33:16;16.20;99.90
12655;DHT22;6392;44.644;11.448;2023-04-02T12:35:43;16.20;99.90
12655;DHT22;6392;44.644;11.448;2023-04-02T12:38:19;16.20;99.90
12655;DHT22;6392;44.644;11.448;2023-04-02T12:40:52;16.30;99.90
12655;DHT22;6392;44.644;11.448;2023-04-02T12:43:23;16.40;99.90
12655;DHT22;6392;44.644;11.448;2023-04-02T12:45:51;16.50;99.90
12655;DHT22;6392;44.644;11.448;2023-04-02T12:48:18;16.50;99.90
12655;DHT22;6392;44.644;11.448;2023-04-02T12:50:45;16.50;99.90
12655;DHT22;6392;44.644;11.448;2023-04-02T12:53:17;16.30;99.90
12655;DHT22;6392;44.644;11.448;2023-04-02T12:55:45;16.20;99.90
12655;DHT22;6392;44.644;11.448;2023-04-02T12:58:28;16.00;99.90
12655;DHT22;6392;44.644;11.448;2023-04-02T13:03:57;15.60;99.90
12655;DHT22;6392;44.644;11.448;2023-04-02T13:06:24;15.30;99.90
12655;DHT22;6392;44.644;11.448;2023-04-02T13:08:52;15.10;99.90
12655;DHT22;6392;44.644;11.448;2023-04-02T13:11:19;15.00;99.90
12655;DHT22;6392;44.644;11.448;2023-04-02T13:13:48;14.80;99.90
12655;DHT22;6392;44.644;11.448;2023-04-02T13:16:25;14.70;99.90
12655;DHT22;6392;44.644;11.448;2023-04-02T13:19:07;14.50;99.90
12655;DHT22;6392;44.644;11.448;2023-04-02T13:21:34;14.40;99.90
12655;DHT22;6392;44.644;11.448;2023-04-02T13:24:01;14.30;99.90
12655;DHT22;6392;44.644;11.448;2023-04-02T13:26:28;14.20;99.90
12655;DHT22;6392;44.644;11.448;2023-04-02T13:28:58;14.30;99.90
12655;DHT22;6392;44.644;11.448;2023-04-02T13:31:26;14.30;99.90
12655;DHT22;6392;44.644;11.448;2023-04-02T13:33:54;14.40;99.90
12655;DHT22;6392;44.644;11.448;2023-04-02T13:36:21;14.50;99.90
12655;DHT22;6392;44.644;11.448;2023-04-02T13:38:48;14.50;99.90
12655;DHT22;6392;44.644;11.448;2023-04-02T13:41:17;14.50;99.90
12655;DHT22;6392;44.644;11.448;2023-04-02T13:43:45;14.20;99.90
12655;DHT22;6392;44.644;11.448;2023-04-02T13:46:16;14.10;99.90
12655;DHT22;6392;44.644;11.448;2023-04-02T13:48:45;13.90;99.90
12655;DHT22;6392;44.644;11.448;2023-04-02T13:51:13;13.80;99.90
12655;DHT22;6392;44.644;11.448;2023-04-02T13:53:41;13.80;99.90
12655;DHT22;6392;44.644;11.448;2023-04-02T13:56:08;13.80;99.90
12655;DHT22;6392;44.644;11.448;2023-04-02T13:58:35;13.70;99.90
12655;DHT22;6392;44.644;11.448;2023-04-02T14:01:01;13.50;99.90
12655;DHT22;6392;44.644;11.448;2023-04-02T14:03:30;13.20;99.90
12655;DHT22;6392;44.644;11.448;2023-04-02T14:05:58;13.10;99.90
12655;DHT22;6392;44.644;11.448;2023-04-02T14:08:29;13.00;99.90
12655;DHT22;6392;44.644;11.448;2023-04-02T14:11:04;12.80;99.90
12655;DHT22;6392;44.644;11.448;2023-04-02T14:13:40;12.70;99.90
12655;DHT22;6392;44.644;11.448;2023-04-02T14:16:20;12.70;99.90
12655;DHT22;6392;44.644;11.448;2023-04-02T14:18:54;12.60;99.90
12655;DHT22;6392;44.644;11.448;2023-04-02T14:21:28;12.50;99.90
12655;DHT22;6392;44.644;11.448;2023-04-02T14:24:04;12.30;99.90
12655;DHT22;6392;44.644;11.448;2023-04-02T14:26:37;12.20;99.90
12655;DHT22;6392;44.644;11.448;2023-04-02T14:29:07;12.10;99.90
12655;DHT22;6392;44.644;11.448;2023-04-02T14:31:36;12.00;99.90
12655;DHT22;6392;44.644;11.448;2023-04-02T14:34:11;11.90;99.90
12655;DHT22;6392;44.644;11.448;2023-04-02T14:36:43;11.90;99.90
12655;DHT22;6392;44.644;11.448;2023-04-02T14:39:12;11.80;99.90
12655;DHT22;6392;44.644;11.448;2023-04-02T14:41:44;11.90;99.90
12655;DHT22;6392;44.644;11.448;2023-04-02T14:44:13;12.00;99.90
12655;DHT22;6392;44.644;11.448;2023-04-02T14:46:41;12.00;99.90
12655;DHT22;6392;44.644;11.448;2023-04-02T14:49:15;12.10;99.90
12655;DHT22;6392;44.644;11.448;2023-04-02T14:51:43;12.10;99.90
12655;DHT22;6392;44.644;11.448;2023-04-02T14:54:13;12.10;99.90
12655;DHT22;6392;44.644;11.448;2023-04-02T14:56:43;12.20;99.90
12655;DHT22;6392;44.644;11.448;2023-04-02T14:59:23;12.30;99.90
12655;DHT22;6392;44.644;11.448;2023-04-02T15:01:52;12.30;99.90
12655;DHT22;6392;44.644;11.448;2023-04-02T15:04:21;12.30;99.90
12655;DHT22;6392;44.644;11.448;2023-04-02T15:06:52;12.30;99.90
12655;DHT22;6392;44.644;11.448;2023-04-02T15:09:22;12.40;99.90
12655;DHT22;6392;44.644;11.448;2023-04-02T15:11:51;12.50;99.90
12655;DHT22;6392;44.644;11.448;2023-04-02T15:14:20;12.50;99.90
12655;DHT22;6392;44.644;11.448;2023-04-02T15:16:49;12.60;99.90
12655;DHT22;6392;44.644;11.448;2023-04-02T15:19:17;12.70;99.90
12655;DHT22;6392;44.644;11.448;2023-04-02T15:22:01;12.70;99.90
12655;DHT22;6392;44.644;11.448;2023-04-02T15:24:30;12.80;99.90
12655;DHT22;6392;44.644;11.448;2023-04-02T15:27:01;12.90;99.90
12655;DHT22;6392;44.644;11.448;2023-04-02T15:29:34;12.90;99.90
12655;DHT22;6392;44.644;11.448;2023-04-02T15:32:04;13.00;99.90
12655;DHT22;6392;44.644;11.448;2023-04-02T15:34:34;13.10;99.90
12655;DHT22;6392;44.644;11.448;2023-04-02T15:37:14;13.20;99.90
12655;DHT22;6392;44.644;11.448;2023-04-02T15:39:54;13.20;99.90
12655;DHT22;6392;44.644;11.448;2023-04-02T15:42:26;13.20;99.90
12655;DHT22;6392;44.644;11.448;2023-04-02T15:45:08;13.30;99.90
12655;DHT22;6392;44.644;11.448;2023-04-02T15:47:43;13.30;99.90
12655;DHT22;6392;44.644;11.448;2023-04-02T15:50:14;13.30;99.90
12655;DHT22;6392;44.644;11.448;2023-04-02T15:52:47;13.30;99.90
12655;DHT22;6392;44.644;11.448;2023-04-02T15:55:19;13.30;99.90
12655;DHT22;6392;44.644;11.448;2023-04-02T15:57:52;13.30;99.90
12655;DHT22;6392;44.644;11.448;2023-04-02T16:00:23;13.30;99.90
12655;DHT22;6392;44.644;11.448;2023-04-02T16:05:38;13.40;99.90
12655;DHT22;6392;44.644;11.448;2023-04-02T16:08:19;13.50;99.90
12655;DHT22;6392;44.644;11.448;2023-04-02T16:10:50;13.50;99.90